sensor_id;sensor_type;location;lat;lon;timestamp;P1;durP1;ratioP1;P2;durP2;ratioP2
57778;SDS011;43608;49.486;9.640;2022-07-22T00:00:23;3.63;;;3.08;;
57778;SDS011;43608;49.486;9.640;2022-07-22T00:00:53;3.70;;;3.03;;
57778;SDS011;43608;49.486;9.640;2022-07-22T00:01:24;3.97;;;3.30;;
57778;SDS011;43608;49.486;9.640;2022-07-22T00:01:54;3.70;;;3.20;;
57778;SDS011;43608;49.486;9.640;2022-07-22T00:02:24;3.92;;;3.00;;
57778;SDS011;43608;49.486;9.640;2022-07-22T00:02:55;3.40;;;3.10;;
57778;SDS011;43608;49.486;9.640;2022-07-22T00:03:25;3.58;;;3.28;;
57778;SDS011;43608;49.486;9.640;2022-07-22T00:03:56;3.47;;;3.13;;
57778;SDS011;43608;49.486;9.640;2022-07-22T00:04:27;3.95;;;3.20;;
57778;SDS011;43608;49.486;9.640;2022-07-22T00:04:57;3.90;;;3.20;;
57778;SDS011;43608;49.486;9.640;2022-07-22T00:05:28;3.72;;;3.25;;
57778;SDS011;43608;49.486;9.640;2022-07-22T00:05:58;3.67;;;3.17;;
57778;SDS011;43608;49.486;9.640;2022-07-22T00:06:29;3.75;;;3.10;;
57778;SDS011;43608;49.486;9.640;2022-07-22T00:06:59;3.63;;;3.00;;
57778;SDS011;43608;49.486;9.640;2022-07-22T00:07:30;4.25;;;3.25;;
57778;SDS011;43608;49.486;9.640;2022-07-22T00:08:00;3.30;;;3.00;;
57778;SDS011;43608;49.486;9.640;2022-07-22T00:08:30;3.72;;;3.22;;
57778;SDS011;43608;49.486;9.640;2022-07-22T00:09:01;3.70;;;2.90;;
57778;SDS011;43608;49.486;9.640;2022-07-22T00:09:32;3.95;;;3.00;;
57778;SDS011;43608;49.486;9.640;2022-07-22T00:10:04;3.47;;;3.03;;
57778;SDS011;43608;49.486;9.640;2022-07-22T00:10:35;3.28;;;2.92;;
57778;SDS011;43608;49.486;9.640;2022-07-22T00:11:06;3.35;;;2.90;;
57778;SDS011;43608;49.486;9.640;2022-07-22T00:11:36;3.90;;;3.10;;
57778;SDS011;43608;49.486;9.640;2022-07-22T00:12:07;3.40;;;2.97;;
57778;SDS011;43608;49.486;9.640;2022-07-22T00:12:38;3.22;;;2.92;;
57778;SDS011;43608;49.486;9.640;2022-07-22T00:13:09;3.30;;;3.00;;
57778;SDS011;43608;49.486;9.640;2022-07-22T00:13:39;3.15;;;2.75;;
57778;SDS011;43608;49.486;9.640;2022-07-22T00:14:10;3.15;;;2.85;;
57778;SDS011;43608;49.486;9.640;2022-07-22T00:14:41;4.43;;;3.40;;
57778;SDS011;43608;49.486;9.640;2022-07-22T00:15:12;3.45;;;2.90;;
57778;SDS011;43608;49.486;9.640;2022-07-22T00:15:42;3.75;;;3.05;;
57778;SDS011;43608;49.486;9.640;2022-07-22T00:16:13;3.28;;;2.97;;
57778;SDS011;43608;49.486;9.640;2022-07-22T00:16:44;3.80;;;2.97;;
57778;SDS011;43608;49.486;9.640;2022-07-22T00:17:14;4.30;;;3.13;;
57778;SDS011;43608;49.486;9.640;2022-07-22T00:17:44;3.50;;;2.80;;
57778;SDS011;43608;49.486;9.640;2022-07-22T00:18:15;3.70;;;2.97;;
57778;SDS011;43608;49.486;9.640;2022-07-22T00:18:46;3.10;;;2.80;;
57778;SDS011;43608;49.486;9.640;2022-07-22T00:19:16;3.30;;;2.85;;
57778;SDS011;43608;49.486;9.640;2022-07-22T00:19:47;3.45;;;3.15;;
57778;SDS011;43608;49.486;9.640;2022-07-22T00:20:17;3.90;;;3.10;;
57778;SDS011;43608;49.486;9.640;2022-07-22T00:20:49;3.42;;;3.13;;
57778;SDS011;43608;49.486;9.640;2022-07-22T00:21:19;3.40;;;3.10;;
57778;SDS011;43608;49.486;9.640;2022-07-22T00:21:50;3.38;;;3.00;;
57778;SDS011;43608;49.486;9.640;2022-07-22T00:22:21;3.35;;;3.05;;
57778;SDS011;43608;49.486;9.640;2022-07-22T00:22:52;3.50;;;3.10;;
57778;SDS011;43608;49.486;9.640;2022-07-22T00:23:22;3.30;;;3.00;;
57778;SDS011;43608;49.486;9.640;2022-07-22T00:23:53;3.13;;;2.80;;
57778;SDS011;43608;49.486;9.640;2022-07-22T00:24:23;3.53;;;2.90;;
57778;SDS011;43608;49.486;9.640;2022-07-22T00:24:53;3.58;;;2.88;;
57778;SDS011;43608;49.486;9.640;2022-07-22T00:25:24;3.50;;;3.20;;
57778;SDS011;43608;49.486;9.640;2022-07-22T00:25:54;3.70;;;3.30;;
57778;SDS011;43608;49.486;9.640;2022-07-22T00:26:25;4.20;;;3.10;;
57778;SDS011;43608;49.486;9.640;2022-07-22T00:26:55;4.00;;;3.28;;
57778;SDS011;43608;49.486;9.640;2022-07-22T00:27:26;4.13;;;3.28;;
57778;SDS011;43608;49.486;9.640;2022-07-22T00:27:56;3.40;;;3.10;;
57778;SDS011;43608;49.486;9.640;2022-07-22T00:28:26;3.67;;;3.17;;
57778;SDS011;43608;49.486;9.640;2022-07-22T00:28:57;3.83;;;3.15;;
57778;SDS011;43608;49.486;9.640;2022-07-22T00:29:27;3.20;;;2.90;;
57778;SDS011;43608;49.486;9.640;2022-07-22T00:29:58;3.60;;;3.20;;
57778;SDS011;43608;49.486;9.640;2022-07-22T00:30:28;3.28;;;2.90;;
57778;SDS011;43608;49.486;9.640;2022-07-22T00:30:59;3.50;;;3.08;;
57778;SDS011;43608;49.486;9.640;2022-07-22T00:31:29;3.58;;;3.08;;
57778;SDS011;43608;49.486;9.640;2022-07-22T00:32:00;3.67;;;3.25;;
57778;SDS011;43608;49.486;9.640;2022-07-22T00:32:31;3.40;;;3.10;;
57778;SDS011;43608;49.486;9.640;2022-07-22T00:33:02;3.60;;;3.05;;
57778;SDS011;43608;49.486;9.640;2022-07-22T00:33:33;3.38;;;3.00;;
57778;SDS011;43608;49.486;9.640;2022-07-22T00:34:04;4.03;;;3.30;;
57778;SDS011;43608;49.486;9.640;2022-07-22T00:34:35;3.38;;;3.08;;
57778;SDS011;43608;49.486;9.640;2022-07-22T00:35:05;3.50;;;3.10;;
57778;SDS011;43608;49.486;9.640;2022-07-22T00:35:36;3.60;;;3.10;;
57778;SDS011;43608;49.486;9.640;2022-07-22T00:36:07;3.70;;;3.00;;
57778;SDS011;43608;49.486;9.640;2022-07-22T00:36:38;4.57;;;3.40;;
57778;SDS011;43608;49.486;9.640;2022-07-22T00:37:08;3.40;;;3.10;;
57778;SDS011;43608;49.486;9.640;2022-07-22T00:37:39;3.60;;;3.00;;
57778;SDS011;43608;49.486;9.640;2022-07-22T00:38:10;3.47;;;3.17;;
57778;SDS011;43608;49.486;9.640;2022-07-22T00:38:40;3.25;;;2.95;;
57778;SDS011;43608;49.486;9.640;2022-07-22T00:39:10;3.40;;;3.10;;
57778;SDS011;43608;49.486;9.640;2022-07-22T00:39:41;3.58;;;3.22;;
57778;SDS011;43608;49.486;9.640;2022-07-22T00:40:12;3.90;;;3.00;;
57778;SDS011;43608;49.486;9.640;2022-07-22T00:40:42;3.20;;;2.90;;
57778;SDS011;43608;49.486;9.640;2022-07-22T00:41:12;3.30;;;2.95;;
57778;SDS011;43608;49.486;9.640;2022-07-22T00:41:43;3.20;;;2.90;;
57778;SDS011;43608;49.486;9.640;2022-07-22T00:42:14;3.60;;;3.10;;
57778;SDS011;43608;49.486;9.640;2022-07-22T00:42:44;3.92;;;3.00;;
57778;SDS011;43608;49.486;9.640;2022-07-22T00:43:15;4.03;;;2.95;;
57778;SDS011;43608;49.486;9.640;2022-07-22T00:43:56;3.40;;;3.08;;
57778;SDS011;43608;49.486;9.640;2022-07-22T00:44:29;3.20;;;2.90;;
57778;SDS011;43608;49.486;9.640;2022-07-22T00:45:00;3.15;;;2.85;;
57778;SDS011;43608;49.486;9.640;2022-07-22T00:45:30;3.40;;;3.10;;
57778;SDS011;43608;49.486;9.640;2022-07-22T00:46:01;3.30;;;3.00;;
57778;SDS011;43608;49.486;9.640;2022-07-22T00:46:31;3.47;;;3.00;;
57778;SDS011;43608;49.486;9.640;2022-07-22T00:47:03;3.30;;;3.00;;
57778;SDS011;43608;49.486;9.640;2022-07-22T00:47:34;3.50;;;3.20;;
57778;SDS011;43608;49.486;9.640;2022-07-22T00:48:05;3.83;;;3.22;;
57778;SDS011;43608;49.486;9.640;2022-07-22T00:48:35;3.78;;;2.70;;
57778;SDS011;43608;49.486;9.640;2022-07-22T00:49:06;3.08;;;2.78;;
57778;SDS011;43608;49.486;9.640;2022-07-22T00:49:39;3.33;;;2.80;;
57778;SDS011;43608;49.486;9.640;2022-07-22T00:50:09;3.22;;;2.80;;
57778;SDS011;43608;49.486;9.640;2022-07-22T00:50:40;3.60;;;3.00;;
57778;SDS011;43608;49.486;9.640;2022-07-22T00:51:11;3.50;;;3.08;;
57778;SDS011;43608;49.486;9.640;2022-07-22T00:51:41;3.67;;;3.10;;
57778;SDS011;43608;49.486;9.640;2022-07-22T00:52:12;3.22;;;2.92;;
57778;SDS011;43608;49.486;9.640;2022-07-22T00:52:43;3.30;;;2.92;;
57778;SDS011;43608;49.486;9.640;2022-07-22T00:53:14;3.42;;;2.90;;
57778;SDS011;43608;49.486;9.640;2022-07-22T00:53:45;3.55;;;3.00;;
57778;SDS011;43608;49.486;9.640;2022-07-22T00:54:17;3.25;;;2.90;;
57778;SDS011;43608;49.486;9.640;2022-07-22T00:54:47;3.20;;;2.90;;
57778;SDS011;43608;49.486;9.640;2022-07-22T00:55:18;3.33;;;2.90;;
57778;SDS011;43608;49.486;9.640;2022-07-22T00:55:48;4.00;;;3.20;;
57778;SDS011;43608;49.486;9.640;2022-07-22T00:56:19;3.42;;;3.00;;
57778;SDS011;43608;49.486;9.640;2022-07-22T00:56:50;4.10;;;3.20;;
57778;SDS011;43608;49.486;9.640;2022-07-22T00:57:20;3.35;;;3.03;;
57778;SDS011;43608;49.486;9.640;2022-07-22T00:57:50;3.35;;;2.97;;
57778;SDS011;43608;49.486;9.640;2022-07-22T00:58:21;3.30;;;2.90;;
57778;SDS011;43608;49.486;9.640;2022-07-22T00:58:52;3.60;;;3.10;;
57778;SDS011;43608;49.486;9.640;2022-07-22T00:59:25;3.30;;;3.00;;
57778;SDS011;43608;49.486;9.640;2022-07-22T00:59:56;3.13;;;2.83;;
57778;SDS011;43608;49.486;9.640;2022-07-22T01:00:26;3.58;;;3.05;;
57778;SDS011;43608;49.486;9.640;2022-07-22T01:00:57;3.30;;;3.00;;
57778;SDS011;43608;49.486;9.640;2022-07-22T01:01:28;3.30;;;3.00;;
57778;SDS011;43608;49.486;9.640;2022-07-22T01:01:58;3.45;;;3.10;;
57778;SDS011;43608;49.486;9.640;2022-07-22T01:02:29;3.58;;;3.15;;
57778;SDS011;43608;49.486;9.640;2022-07-22T01:02:59;3.33;;;2.90;;
57778;SDS011;43608;49.486;9.640;2022-07-22T01:03:29;3.50;;;3.20;;
57778;SDS011;43608;49.486;9.640;2022-07-22T01:04:00;3.60;;;3.10;;
57778;SDS011;43608;49.486;9.640;2022-07-22T01:04:31;3.25;;;2.92;;
57778;SDS011;43608;49.486;9.640;2022-07-22T01:05:02;3.60;;;2.92;;
57778;SDS011;43608;49.486;9.640;2022-07-22T01:05:33;3.25;;;2.80;;
57778;SDS011;43608;49.486;9.640;2022-07-22T01:06:03;3.38;;;3.00;;
57778;SDS011;43608;49.486;9.640;2022-07-22T01:06:34;3.33;;;2.90;;
57778;SDS011;43608;49.486;9.640;2022-07-22T01:07:04;3.10;;;2.80;;
57778;SDS011;43608;49.486;9.640;2022-07-22T01:07:36;3.78;;;3.20;;
57778;SDS011;43608;49.486;9.640;2022-07-22T01:08:07;3.40;;;3.10;;
57778;SDS011;43608;49.486;9.640;2022-07-22T01:08:38;3.10;;;2.80;;
57778;SDS011;43608;49.486;9.640;2022-07-22T01:09:09;3.65;;;3.10;;
57778;SDS011;43608;49.486;9.640;2022-07-22T01:09:43;3.28;;;2.97;;
57778;SDS011;43608;49.486;9.640;2022-07-22T01:10:14;3.58;;;3.25;;
57778;SDS011;43608;49.486;9.640;2022-07-22T01:10:45;3.90;;;3.15;;
57778;SDS011;43608;49.486;9.640;2022-07-22T01:11:17;3.70;;;3.30;;
57778;SDS011;43608;49.486;9.640;2022-07-22T01:11:49;3.58;;;3.17;;
57778;SDS011;43608;49.486;9.640;2022-07-22T01:12:20;3.80;;;3.40;;
57778;SDS011;43608;49.486;9.640;2022-07-22T01:12:50;3.83;;;3.30;;
57778;SDS011;43608;49.486;9.640;2022-07-22T01:13:21;3.50;;;3.10;;
57778;SDS011;43608;49.486;9.640;2022-07-22T01:13:52;3.67;;;3.05;;
57778;SDS011;43608;49.486;9.640;2022-07-22T01:14:24;3.80;;;3.40;;
57778;SDS011;43608;49.486;9.640;2022-07-22T01:14:55;3.50;;;3.20;;
57778;SDS011;43608;49.486;9.640;2022-07-22T01:15:25;4.15;;;3.40;;
57778;SDS011;43608;49.486;9.640;2022-07-22T01:15:55;4.10;;;3.42;;
57778;SDS011;43608;49.486;9.640;2022-07-22T01:16:26;3.65;;;3.25;;
57778;SDS011;43608;49.486;9.640;2022-07-22T01:16:56;3.97;;;3.40;;
57778;SDS011;43608;49.486;9.640;2022-07-22T01:17:27;3.75;;;3.35;;
57778;SDS011;43608;49.486;9.640;2022-07-22T01:17:57;3.40;;;2.90;;
57778;SDS011;43608;49.486;9.640;2022-07-22T01:18:28;3.90;;;3.50;;
57778;SDS011;43608;49.486;9.640;2022-07-22T01:18:58;3.53;;;3.08;;
57778;SDS011;43608;49.486;9.640;2022-07-22T01:19:28;4.40;;;3.30;;
57778;SDS011;43608;49.486;9.640;2022-07-22T01:20:00;4.10;;;3.33;;
57778;SDS011;43608;49.486;9.640;2022-07-22T01:20:34;3.63;;;3.15;;
57778;SDS011;43608;49.486;9.640;2022-07-22T01:21:05;3.85;;;3.30;;
57778;SDS011;43608;49.486;9.640;2022-07-22T01:21:36;4.00;;;3.40;;
57778;SDS011;43608;49.486;9.640;2022-07-22T01:22:07;5.85;;;3.67;;
57778;SDS011;43608;49.486;9.640;2022-07-22T01:22:37;4.85;;;3.60;;
57778;SDS011;43608;49.486;9.640;2022-07-22T01:23:07;4.10;;;3.50;;
57778;SDS011;43608;49.486;9.640;2022-07-22T01:23:38;3.88;;;3.47;;
57778;SDS011;43608;49.486;9.640;2022-07-22T01:24:09;4.00;;;3.50;;
57778;SDS011;43608;49.486;9.640;2022-07-22T01:24:40;4.22;;;3.53;;
57778;SDS011;43608;49.486;9.640;2022-07-22T01:25:10;3.80;;;3.40;;
57778;SDS011;43608;49.486;9.640;2022-07-22T01:25:42;3.90;;;3.50;;
57778;SDS011;43608;49.486;9.640;2022-07-22T01:26:12;3.97;;;3.38;;
57778;SDS011;43608;49.486;9.640;2022-07-22T01:26:43;4.10;;;3.42;;
57778;SDS011;43608;49.486;9.640;2022-07-22T01:27:14;3.38;;;3.08;;
57778;SDS011;43608;49.486;9.640;2022-07-22T01:27:44;3.67;;;3.10;;
57778;SDS011;43608;49.486;9.640;2022-07-22T01:28:15;3.67;;;3.30;;
57778;SDS011;43608;49.486;9.640;2022-07-22T01:28:45;3.55;;;3.20;;
57778;SDS011;43608;49.486;9.640;2022-07-22T01:29:15;4.00;;;3.30;;
57778;SDS011;43608;49.486;9.640;2022-07-22T01:29:46;3.70;;;3.17;;
57778;SDS011;43608;49.486;9.640;2022-07-22T01:30:16;3.70;;;3.33;;
57778;SDS011;43608;49.486;9.640;2022-07-22T01:30:47;3.28;;;2.88;;
57778;SDS011;43608;49.486;9.640;2022-07-22T01:31:19;3.40;;;3.10;;
57778;SDS011;43608;49.486;9.640;2022-07-22T01:31:50;3.80;;;3.30;;
57778;SDS011;43608;49.486;9.640;2022-07-22T01:32:20;3.75;;;3.35;;
57778;SDS011;43608;49.486;9.640;2022-07-22T01:32:50;3.67;;;3.17;;
57778;SDS011;43608;49.486;9.640;2022-07-22T01:33:21;3.65;;;3.30;;
57778;SDS011;43608;49.486;9.640;2022-07-22T01:33:53;3.40;;;3.10;;
57778;SDS011;43608;49.486;9.640;2022-07-22T01:34:24;3.70;;;3.10;;
57778;SDS011;43608;49.486;9.640;2022-07-22T01:34:54;3.25;;;2.95;;
57778;SDS011;43608;49.486;9.640;2022-07-22T01:35:25;4.00;;;3.05;;
57778;SDS011;43608;49.486;9.640;2022-07-22T01:35:55;3.70;;;3.10;;
57778;SDS011;43608;49.486;9.640;2022-07-22T01:36:26;3.50;;;3.10;;
57778;SDS011;43608;49.486;9.640;2022-07-22T01:36:56;3.60;;;3.03;;
57778;SDS011;43608;49.486;9.640;2022-07-22T01:37:27;3.45;;;2.97;;
57778;SDS011;43608;49.486;9.640;2022-07-22T01:37:57;3.33;;;3.03;;
57778;SDS011;43608;49.486;9.640;2022-07-22T01:38:27;3.45;;;3.13;;
57778;SDS011;43608;49.486;9.640;2022-07-22T01:38:58;3.55;;;3.10;;
57778;SDS011;43608;49.486;9.640;2022-07-22T01:39:28;3.30;;;3.00;;
57778;SDS011;43608;49.486;9.640;2022-07-22T01:39:59;3.60;;;3.17;;
57778;SDS011;43608;49.486;9.640;2022-07-22T01:40:29;3.45;;;3.15;;
57778;SDS011;43608;49.486;9.640;2022-07-22T01:41:00;3.30;;;3.00;;
57778;SDS011;43608;49.486;9.640;2022-07-22T01:41:33;3.80;;;3.40;;
57778;SDS011;43608;49.486;9.640;2022-07-22T01:42:04;3.63;;;3.15;;
57778;SDS011;43608;49.486;9.640;2022-07-22T01:42:34;3.67;;;3.20;;
57778;SDS011;43608;49.486;9.640;2022-07-22T01:43:05;3.50;;;3.10;;
57778;SDS011;43608;49.486;9.640;2022-07-22T01:43:36;3.40;;;3.00;;
57778;SDS011;43608;49.486;9.640;2022-07-22T01:44:06;3.58;;;3.20;;
57778;SDS011;43608;49.486;9.640;2022-07-22T01:44:37;4.45;;;3.40;;
57778;SDS011;43608;49.486;9.640;2022-07-22T01:45:08;3.67;;;3.28;;
57778;SDS011;43608;49.486;9.640;2022-07-22T01:45:39;3.80;;;3.40;;
57778;SDS011;43608;49.486;9.640;2022-07-22T01:46:09;3.60;;;3.30;;
57778;SDS011;43608;49.486;9.640;2022-07-22T01:46:39;3.40;;;3.10;;
57778;SDS011;43608;49.486;9.640;2022-07-22T01:47:10;3.55;;;3.17;;
57778;SDS011;43608;49.486;9.640;2022-07-22T01:47:41;3.63;;;3.25;;
57778;SDS011;43608;49.486;9.640;2022-07-22T01:48:11;3.88;;;3.25;;
57778;SDS011;43608;49.486;9.640;2022-07-22T01:48:42;4.22;;;3.35;;
57778;SDS011;43608;49.486;9.640;2022-07-22T01:49:13;3.55;;;3.22;;
57778;SDS011;43608;49.486;9.640;2022-07-22T01:49:45;3.30;;;3.00;;
57778;SDS011;43608;49.486;9.640;2022-07-22T01:50:15;3.47;;;3.10;;
57778;SDS011;43608;49.486;9.640;2022-07-22T01:50:46;3.30;;;2.90;;
57778;SDS011;43608;49.486;9.640;2022-07-22T01:51:16;3.47;;;3.00;;
57778;SDS011;43608;49.486;9.640;2022-07-22T01:51:47;3.70;;;3.25;;
57778;SDS011;43608;49.486;9.640;2022-07-22T01:52:17;3.90;;;3.00;;
57778;SDS011;43608;49.486;9.640;2022-07-22T01:52:47;3.33;;;2.85;;
57778;SDS011;43608;49.486;9.640;2022-07-22T01:53:18;3.85;;;3.10;;
57778;SDS011;43608;49.486;9.640;2022-07-22T01:53:49;3.80;;;3.40;;
57778;SDS011;43608;49.486;9.640;2022-07-22T01:54:19;3.60;;;3.10;;
57778;SDS011;43608;49.486;9.640;2022-07-22T01:54:50;3.47;;;3.08;;
57778;SDS011;43608;49.486;9.640;2022-07-22T01:55:20;3.85;;;3.00;;
57778;SDS011;43608;49.486;9.640;2022-07-22T01:55:51;3.30;;;2.95;;
57778;SDS011;43608;49.486;9.640;2022-07-22T01:56:21;3.88;;;3.15;;
57778;SDS011;43608;49.486;9.640;2022-07-22T01:56:52;3.38;;;3.08;;
57778;SDS011;43608;49.486;9.640;2022-07-22T01:57:22;3.90;;;3.47;;
57778;SDS011;43608;49.486;9.640;2022-07-22T01:57:53;3.50;;;2.85;;
57778;SDS011;43608;49.486;9.640;2022-07-22T01:58:23;3.53;;;3.22;;
57778;SDS011;43608;49.486;9.640;2022-07-22T01:58:53;3.60;;;3.10;;
57778;SDS011;43608;49.486;9.640;2022-07-22T01:59:24;3.60;;;3.20;;
57778;SDS011;43608;49.486;9.640;2022-07-22T01:59:54;3.50;;;3.10;;
57778;SDS011;43608;49.486;9.640;2022-07-22T02:00:25;3.40;;;3.10;;
57778;SDS011;43608;49.486;9.640;2022-07-22T02:00:56;3.63;;;3.08;;
57778;SDS011;43608;49.486;9.640;2022-07-22T02:01:26;3.42;;;2.92;;
57778;SDS011;43608;49.486;9.640;2022-07-22T02:01:56;3.70;;;3.20;;
57778;SDS011;43608;49.486;9.640;2022-07-22T02:02:27;3.80;;;3.15;;
57778;SDS011;43608;49.486;9.640;2022-07-22T02:02:57;3.67;;;3.15;;
57778;SDS011;43608;49.486;9.640;2022-07-22T02:03:28;3.53;;;3.22;;
57778;SDS011;43608;49.486;9.640;2022-07-22T02:03:58;3.90;;;3.40;;
57778;SDS011;43608;49.486;9.640;2022-07-22T02:04:28;3.50;;;3.20;;
57778;SDS011;43608;49.486;9.640;2022-07-22T02:04:59;3.97;;;3.20;;
57778;SDS011;43608;49.486;9.640;2022-07-22T02:05:29;3.92;;;3.30;;
57778;SDS011;43608;49.486;9.640;2022-07-22T02:06:00;3.38;;;3.08;;
57778;SDS011;43608;49.486;9.640;2022-07-22T02:06:30;3.70;;;3.30;;
57778;SDS011;43608;49.486;9.640;2022-07-22T02:07:01;3.80;;;3.13;;
57778;SDS011;43608;49.486;9.640;2022-07-22T02:07:31;3.40;;;3.10;;
57778;SDS011;43608;49.486;9.640;2022-07-22T02:08:03;3.40;;;3.10;;
57778;SDS011;43608;49.486;9.640;2022-07-22T02:08:35;3.13;;;2.80;;
57778;SDS011;43608;49.486;9.640;2022-07-22T02:09:05;3.60;;;3.10;;
57778;SDS011;43608;49.486;9.640;2022-07-22T02:09:36;3.50;;;3.20;;
57778;SDS011;43608;49.486;9.640;2022-07-22T02:10:06;3.67;;;3.13;;
57778;SDS011;43608;49.486;9.640;2022-07-22T02:10:37;3.97;;;3.10;;
57778;SDS011;43608;49.486;9.640;2022-07-22T02:11:08;3.20;;;2.90;;
57778;SDS011;43608;49.486;9.640;2022-07-22T02:11:39;3.60;;;3.25;;
57778;SDS011;43608;49.486;9.640;2022-07-22T02:12:09;3.22;;;2.90;;
57778;SDS011;43608;49.486;9.640;2022-07-22T02:12:39;3.60;;;3.10;;
57778;SDS011;43608;49.486;9.640;2022-07-22T02:13:10;3.42;;;3.10;;
57778;SDS011;43608;49.486;9.640;2022-07-22T02:13:40;3.33;;;2.95;;
57778;SDS011;43608;49.486;9.640;2022-07-22T02:14:11;3.35;;;3.05;;
57778;SDS011;43608;49.486;9.640;2022-07-22T02:14:41;3.50;;;3.15;;
57778;SDS011;43608;49.486;9.640;2022-07-22T02:15:11;3.20;;;2.80;;
57778;SDS011;43608;49.486;9.640;2022-07-22T02:15:42;3.80;;;3.40;;
57778;SDS011;43608;49.486;9.640;2022-07-22T02:16:12;3.10;;;2.80;;
57778;SDS011;43608;49.486;9.640;2022-07-22T02:16:43;3.22;;;2.88;;
57778;SDS011;43608;49.486;9.640;2022-07-22T02:17:14;3.65;;;3.20;;
57778;SDS011;43608;49.486;9.640;2022-07-22T02:17:44;3.35;;;3.00;;
57778;SDS011;43608;49.486;9.640;2022-07-22T02:18:16;3.50;;;3.17;;
57778;SDS011;43608;49.486;9.640;2022-07-22T02:18:47;3.20;;;2.90;;
57778;SDS011;43608;49.486;9.640;2022-07-22T02:19:18;3.72;;;3.33;;
57778;SDS011;43608;49.486;9.640;2022-07-22T02:19:48;3.78;;;3.33;;
57778;SDS011;43608;49.486;9.640;2022-07-22T02:20:19;3.88;;;3.35;;
57778;SDS011;43608;49.486;9.640;2022-07-22T02:20:50;3.80;;;3.40;;
57778;SDS011;43608;49.486;9.640;2022-07-22T02:21:21;3.67;;;3.20;;
57778;SDS011;43608;49.486;9.640;2022-07-22T02:21:51;3.58;;;3.20;;
57778;SDS011;43608;49.486;9.640;2022-07-22T02:22:22;3.58;;;3.15;;
57778;SDS011;43608;49.486;9.640;2022-07-22T02:22:52;3.53;;;3.13;;
57778;SDS011;43608;49.486;9.640;2022-07-22T02:23:22;3.35;;;3.05;;
57778;SDS011;43608;49.486;9.640;2022-07-22T02:23:53;3.30;;;2.83;;
57778;SDS011;43608;49.486;9.640;2022-07-22T02:24:23;3.10;;;2.80;;
57778;SDS011;43608;49.486;9.640;2022-07-22T02:24:54;3.88;;;3.30;;
57778;SDS011;43608;49.486;9.640;2022-07-22T02:25:24;3.30;;;3.00;;
57778;SDS011;43608;49.486;9.640;2022-07-22T02:25:55;3.35;;;3.05;;
57778;SDS011;43608;49.486;9.640;2022-07-22T02:26:25;3.70;;;3.20;;
57778;SDS011;43608;49.486;9.640;2022-07-22T02:26:56;3.58;;;3.00;;
57778;SDS011;43608;49.486;9.640;2022-07-22T02:27:26;3.30;;;2.97;;
57778;SDS011;43608;49.486;9.640;2022-07-22T02:27:56;3.40;;;3.10;;
57778;SDS011;43608;49.486;9.640;2022-07-22T02:28:27;4.10;;;3.40;;
57778;SDS011;43608;49.486;9.640;2022-07-22T02:28:57;3.30;;;3.00;;
57778;SDS011;43608;49.486;9.640;2022-07-22T02:29:28;3.78;;;3.40;;
57778;SDS011;43608;49.486;9.640;2022-07-22T02:29:58;3.75;;;3.35;;
57778;SDS011;43608;49.486;9.640;2022-07-22T02:30:29;4.15;;;3.55;;
57778;SDS011;43608;49.486;9.640;2022-07-22T02:31:00;3.63;;;3.22;;
57778;SDS011;43608;49.486;9.640;2022-07-22T02:31:30;4.03;;;3.60;;
57778;SDS011;43608;49.486;9.640;2022-07-22T02:32:01;4.32;;;3.58;;
57778;SDS011;43608;49.486;9.640;2022-07-22T02:32:31;3.90;;;3.50;;
57778;SDS011;43608;49.486;9.640;2022-07-22T02:33:02;3.88;;;3.47;;
57778;SDS011;43608;49.486;9.640;2022-07-22T02:33:32;4.32;;;3.47;;
57778;SDS011;43608;49.486;9.640;2022-07-22T02:34:03;3.90;;;3.35;;
57778;SDS011;43608;49.486;9.640;2022-07-22T02:34:33;4.03;;;3.63;;
57778;SDS011;43608;49.486;9.640;2022-07-22T02:35:04;3.88;;;3.47;;
57778;SDS011;43608;49.486;9.640;2022-07-22T02:35:34;4.15;;;3.60;;
57778;SDS011;43608;49.486;9.640;2022-07-22T02:36:05;3.83;;;3.42;;
57778;SDS011;43608;49.486;9.640;2022-07-22T02:36:36;4.20;;;3.80;;
57778;SDS011;43608;49.486;9.640;2022-07-22T02:37:06;3.85;;;3.40;;
57778;SDS011;43608;49.486;9.640;2022-07-22T02:37:37;4.07;;;3.67;;
57778;SDS011;43608;49.486;9.640;2022-07-22T02:38:07;4.25;;;3.55;;
57778;SDS011;43608;49.486;9.640;2022-07-22T02:38:38;4.80;;;3.90;;
57778;SDS011;43608;49.486;9.640;2022-07-22T02:39:08;4.20;;;3.78;;
57778;SDS011;43608;49.486;9.640;2022-07-22T02:39:39;4.05;;;3.50;;
57778;SDS011;43608;49.486;9.640;2022-07-22T02:40:09;4.68;;;4.00;;
57778;SDS011;43608;49.486;9.640;2022-07-22T02:40:40;4.53;;;3.70;;
57778;SDS011;43608;49.486;9.640;2022-07-22T02:41:11;4.55;;;3.75;;
57778;SDS011;43608;49.486;9.640;2022-07-22T02:41:41;4.43;;;3.50;;
57778;SDS011;43608;49.486;9.640;2022-07-22T02:42:11;4.28;;;3.88;;
57778;SDS011;43608;49.486;9.640;2022-07-22T02:42:42;4.07;;;3.67;;
57778;SDS011;43608;49.486;9.640;2022-07-22T02:43:12;3.90;;;3.25;;
57778;SDS011;43608;49.486;9.640;2022-07-22T02:43:43;3.90;;;3.47;;
57778;SDS011;43608;49.486;9.640;2022-07-22T02:44:13;4.10;;;3.60;;
57778;SDS011;43608;49.486;9.640;2022-07-22T02:44:44;3.80;;;3.40;;
57778;SDS011;43608;49.486;9.640;2022-07-22T02:45:14;4.38;;;3.75;;
57778;SDS011;43608;49.486;9.640;2022-07-22T02:45:44;3.65;;;3.28;;
57778;SDS011;43608;49.486;9.640;2022-07-22T02:46:15;4.40;;;3.75;;
57778;SDS011;43608;49.486;9.640;2022-07-22T02:46:45;3.85;;;3.40;;
57778;SDS011;43608;49.486;9.640;2022-07-22T02:47:16;3.80;;;3.35;;
57778;SDS011;43608;49.486;9.640;2022-07-22T02:47:47;4.28;;;3.65;;
57778;SDS011;43608;49.486;9.640;2022-07-22T02:48:22;3.80;;;3.13;;
57778;SDS011;43608;49.486;9.640;2022-07-22T02:48:52;3.47;;;3.13;;
57778;SDS011;43608;49.486;9.640;2022-07-22T02:49:22;4.18;;;3.67;;
57778;SDS011;43608;49.486;9.640;2022-07-22T02:49:53;3.70;;;3.40;;
57778;SDS011;43608;49.486;9.640;2022-07-22T02:50:23;3.92;;;3.40;;
57778;SDS011;43608;49.486;9.640;2022-07-22T02:50:54;3.55;;;3.25;;
57778;SDS011;43608;49.486;9.640;2022-07-22T02:51:25;4.00;;;3.60;;
57778;SDS011;43608;49.486;9.640;2022-07-22T02:51:56;4.05;;;3.50;;
57778;SDS011;43608;49.486;9.640;2022-07-22T02:52:26;4.00;;;3.60;;
57778;SDS011;43608;49.486;9.640;2022-07-22T02:52:56;4.18;;;3.70;;
57778;SDS011;43608;49.486;9.640;2022-07-22T02:53:27;4.30;;;3.67;;
57778;SDS011;43608;49.486;9.640;2022-07-22T02:53:57;4.45;;;3.58;;
57778;SDS011;43608;49.486;9.640;2022-07-22T02:54:28;4.00;;;3.60;;
57778;SDS011;43608;49.486;9.640;2022-07-22T02:54:58;4.40;;;3.72;;
57778;SDS011;43608;49.486;9.640;2022-07-22T02:55:28;4.13;;;3.63;;
57778;SDS011;43608;49.486;9.640;2022-07-22T02:55:59;4.28;;;3.88;;
57778;SDS011;43608;49.486;9.640;2022-07-22T02:56:29;4.43;;;3.70;;
57778;SDS011;43608;49.486;9.640;2022-07-22T02:56:59;4.93;;;3.60;;
57778;SDS011;43608;49.486;9.640;2022-07-22T02:57:30;4.22;;;3.40;;
57778;SDS011;43608;49.486;9.640;2022-07-22T02:58:07;4.13;;;3.63;;
57778;SDS011;43608;49.486;9.640;2022-07-22T02:58:38;3.95;;;3.55;;
57778;SDS011;43608;49.486;9.640;2022-07-22T02:59:09;3.83;;;3.42;;
57778;SDS011;43608;49.486;9.640;2022-07-22T02:59:43;4.10;;;3.70;;
57778;SDS011;43608;49.486;9.640;2022-07-22T03:00:13;4.13;;;3.70;;
57778;SDS011;43608;49.486;9.640;2022-07-22T03:00:44;3.85;;;3.42;;
57778;SDS011;43608;49.486;9.640;2022-07-22T03:01:14;4.00;;;3.60;;
57778;SDS011;43608;49.486;9.640;2022-07-22T03:01:45;4.28;;;3.47;;
57778;SDS011;43608;49.486;9.640;2022-07-22T03:02:15;3.83;;;3.22;;
57778;SDS011;43608;49.486;9.640;2022-07-22T03:02:46;3.95;;;3.30;;
57778;SDS011;43608;49.486;9.640;2022-07-22T03:03:16;4.97;;;3.50;;
57778;SDS011;43608;49.486;9.640;2022-07-22T03:03:46;3.70;;;3.28;;
57778;SDS011;43608;49.486;9.640;2022-07-22T03:04:17;3.78;;;3.08;;
57778;SDS011;43608;49.486;9.640;2022-07-22T03:04:47;4.60;;;3.58;;
57778;SDS011;43608;49.486;9.640;2022-07-22T03:05:17;4.03;;;3.55;;